sensor_id;sensor_type;location;lat;lon;timestamp;pressure;altitude;pressure_sealevel;temperature;humidity
60246;BME280;46107;53.356;-1.524;2023-02-18T00:00:55;98984.04;;;9.23;96.73
60246;BME280;46107;53.356;-1.524;2023-02-18T00:03:23;98984.56;;;9.66;92.79
60246;BME280;46107;53.356;-1.524;2023-02-18T00:05:52;98985.26;;;9.66;94.35
60246;BME280;46107;53.356;-1.524;2023-02-18T00:08:19;98993.34;;;9.96;90.79
60246;BME280;46107;53.356;-1.524;2023-02-18T00:10:47;98996.59;;;9.61;91.23
60246;BME280;46107;53.356;-1.524;2023-02-18T00:13:15;98989.98;;;9.21;94.95
60246;BME280;46107;53.356;-1.524;2023-02-18T00:15:43;98984.03;;;9.92;90.66
60246;BME280;46107;53.356;-1.524;2023-02-18T00:18:10;98984.27;;;10.08;90.28
60246;BME280;46107;53.356;-1.524;2023-02-18T00:20:38;98977.95;;;9.12;93.75
60246;BME280;46107;53.356;-1.524;2023-02-18T00:23:06;98960.35;;;9.15;95.06
60246;BME280;46107;53.356;-1.524;2023-02-18T00:25:34;98948.79;;;9.10;96.44
60246;BME280;46107;53.356;-1.524;2023-02-18T00:28:01;98961.72;;;8.21;100.00
60246;BME280;46107;53.356;-1.524;2023-02-18T00:30:29;98954.88;;;9.43;95.49
60246;BME280;46107;53.356;-1.524;2023-02-18T00:32:56;98940.98;;;8.99;93.05
60246;BME280;46107;53.356;-1.524;2023-02-18T00:35:23;98942.40;;;9.22;95.26
60246;BME280;46107;53.356;-1.524;2023-02-18T00:37:51;98962.64;;;8.43;98.46
60246;BME280;46107;53.356;-1.524;2023-02-18T00:40:19;98954.65;;;8.93;100.00
60246;BME280;46107;53.356;-1.524;2023-02-18T00:42:47;98948.77;;;8.86;96.24
60246;BME280;46107;53.356;-1.524;2023-02-18T00:45:14;98943.10;;;9.47;92.00
60246;BME280;46107;53.356;-1.524;2023-02-18T00:47:42;98955.87;;;8.04;99.54
60246;BME280;46107;53.356;-1.524;2023-02-18T00:50:10;98966.15;;;8.98;98.29
60246;BME280;46107;53.356;-1.524;2023-02-18T00:52:38;98969.95;;;8.92;98.02
60246;BME280;46107;53.356;-1.524;2023-02-18T00:55:06;98951.79;;;9.63;96.59
60246;BME280;46107;53.356;-1.524;2023-02-18T00:57:34;98950.77;;;9.45;93.62
60246;BME280;46107;53.356;-1.524;2023-02-18T01:00:02;98964.23;;;8.91;98.62
60246;BME280;46107;53.356;-1.524;2023-02-18T01:02:29;98965.51;;;8.87;97.82
60246;BME280;46107;53.356;-1.524;2023-02-18T01:04:57;98960.18;;;8.55;99.33
60246;BME280;46107;53.356;-1.524;2023-02-18T01:07:24;98967.43;;;9.02;97.44
60246;BME280;46107;53.356;-1.524;2023-02-18T01:09:51;98956.04;;;9.08;96.22
60246;BME280;46107;53.356;-1.524;2023-02-18T01:12:19;98966.00;;;8.68;98.08
60246;BME280;46107;53.356;-1.524;2023-02-18T01:14:46;98962.92;;;9.00;96.86
60246;BME280;46107;53.356;-1.524;2023-02-18T01:17:14;98971.98;;;9.33;95.83
60246;BME280;46107;53.356;-1.524;2023-02-18T01:19:41;98967.33;;;8.35;100.00
60246;BME280;46107;53.356;-1.524;2023-02-18T01:22:09;98970.34;;;8.15;100.00
60246;BME280;46107;53.356;-1.524;2023-02-18T01:24:36;98964.65;;;8.11;100.00
60246;BME280;46107;53.356;-1.524;2023-02-18T01:27:04;98957.04;;;8.96;100.00
60246;BME280;46107;53.356;-1.524;2023-02-18T01:29:32;98950.59;;;8.70;100.00
60246;BME280;46107;53.356;-1.524;2023-02-18T01:31:59;98929.44;;;8.66;100.00
60246;BME280;46107;53.356;-1.524;2023-02-18T01:34:27;98928.98;;;8.30;100.00
60246;BME280;46107;53.356;-1.524;2023-02-18T01:36:55;98914.36;;;8.68;100.00
60246;BME280;46107;53.356;-1.524;2023-02-18T01:39:22;98902.31;;;8.18;100.00
60246;BME280;46107;53.356;-1.524;2023-02-18T01:41:49;98894.36;;;8.72;98.49
60246;BME280;46107;53.356;-1.524;2023-02-18T01:44:19;98892.18;;;9.40;97.06
60246;BME280;46107;53.356;-1.524;2023-02-18T01:46:48;98886.26;;;8.80;97.36
60246;BME280;46107;53.356;-1.524;2023-02-18T01:49:20;98881.33;;;8.53;97.65
60246;BME280;46107;53.356;-1.524;2023-02-18T01:51:50;98870.22;;;8.79;98.06
60246;BME280;46107;53.356;-1.524;2023-02-18T01:54:22;98879.55;;;8.72;99.40
60246;BME280;46107;53.356;-1.524;2023-02-18T01:56:56;98878.87;;;9.02;98.29
60246;BME280;46107;53.356;-1.524;2023-02-18T01:59:29;98892.16;;;8.22;100.00
60246;BME280;46107;53.356;-1.524;2023-02-18T02:01:59;98864.49;;;7.72;100.00
60246;BME280;46107;53.356;-1.524;2023-02-18T02:04:27;98851.45;;;7.86;100.00
60246;BME280;46107;53.356;-1.524;2023-02-18T02:06:54;98822.29;;;8.38;100.00
60246;BME280;46107;53.356;-1.524;2023-02-18T02:09:24;98823.59;;;8.12;100.00
60246;BME280;46107;53.356;-1.524;2023-02-18T02:12:13;98820.72;;;7.52;100.00
60246;BME280;46107;53.356;-1.524;2023-02-18T02:14:59;98828.94;;;7.19;100.00
60246;BME280;46107;53.356;-1.524;2023-02-18T02:17:36;98816.56;;;8.02;100.00
60246;BME280;46107;53.356;-1.524;2023-02-18T02:20:22;98815.50;;;7.27;100.00
60246;BME280;46107;53.356;-1.524;2023-02-18T02:23:17;98803.83;;;7.37;100.00
60246;BME280;46107;53.356;-1.524;2023-02-18T02:27:15;98786.41;;;7.24;100.00
60246;BME280;46107;53.356;-1.524;2023-02-18T02:30:16;98772.68;;;7.07;100.00
60246;BME280;46107;53.356;-1.524;2023-02-18T02:33:03;98780.44;;;7.50;100.00
60246;BME280;46107;53.356;-1.524;2023-02-18T02:35:34;98779.16;;;6.66;100.00
60246;BME280;46107;53.356;-1.524;2023-02-18T02:38:06;98764.81;;;6.65;100.00
60246;BME280;46107;53.356;-1.524;2023-02-18T02:40:43;98757.48;;;6.52;100.00
60246;BME280;46107;53.356;-1.524;2023-02-18T02:43:20;98738.72;;;6.02;100.00
60246;BME280;46107;53.356;-1.524;2023-02-18T02:45:54;98753.35;;;6.51;100.00
60246;BME280;46107;53.356;-1.524;2023-02-18T02:48:31;98746.29;;;5.93;100.00
60246;BME280;46107;53.356;-1.524;2023-02-18T02:51:08;98736.35;;;6.55;100.00
60246;BME280;46107;53.356;-1.524;2023-02-18T02:53:40;98740.90;;;6.35;100.00
60246;BME280;46107;53.356;-1.524;2023-02-18T02:56:12;98728.78;;;6.50;100.00
60246;BME280;46107;53.356;-1.524;2023-02-18T02:58:41;98737.38;;;6.20;100.00
60246;BME280;46107;53.356;-1.524;2023-02-18T03:01:21;98715.28;;;6.27;100.00
60246;BME280;46107;53.356;-1.524;2023-02-18T03:04:08;98728.65;;;6.62;100.00
60246;BME280;46107;53.356;-1.524;2023-02-18T03:07:25;98724.00;;;6.63;100.00
60246;BME280;46107;53.356;-1.524;2023-02-18T03:10:06;98719.59;;;6.69;100.00
60246;BME280;46107;53.356;-1.524;2023-02-18T03:12:46;98711.44;;;6.66;100.00
60246;BME280;46107;53.356;-1.524;2023-02-18T03:15:20;98706.45;;;6.67;100.00
60246;BME280;46107;53.356;-1.524;2023-02-18T03:17:56;98706.79;;;6.68;100.00
60246;BME280;46107;53.356;-1.524;2023-02-18T03:20:31;98702.09;;;6.35;100.00
60246;BME280;46107;53.356;-1.524;2023-02-18T03:23:03;98695.57;;;6.51;100.00
60246;BME280;46107;53.356;-1.524;2023-02-18T03:25:33;98684.15;;;6.36;100.00
60246;BME280;46107;53.356;-1.524;2023-02-18T03:28:05;98691.40;;;6.39;100.00
60246;BME280;46107;53.356;-1.524;2023-02-18T03:30:37;98684.64;;;6.55;100.00
60246;BME280;46107;53.356;-1.524;2023-02-18T03:33:12;98674.34;;;6.80;100.00
60246;BME280;46107;53.356;-1.524;2023-02-18T03:35:41;98676.07;;;6.41;100.00
60246;BME280;46107;53.356;-1.524;2023-02-18T03:38:15;98667.78;;;6.01;100.00
60246;BME280;46107;53.356;-1.524;2023-02-18T03:40:46;98683.18;;;6.16;100.00
60246;BME280;46107;53.356;-1.524;2023-02-18T03:43:13;98681.75;;;6.16;100.00
60246;BME280;46107;53.356;-1.524;2023-02-18T03:45:40;98670.34;;;5.62;100.00
60246;BME280;46107;53.356;-1.524;2023-02-18T03:48:08;98657.09;;;5.93;100.00
60246;BME280;46107;53.356;-1.524;2023-02-18T03:50:36;98659.12;;;5.41;100.00
60246;BME280;46107;53.356;-1.524;2023-02-18T03:53:04;98645.99;;;5.58;100.00
60246;BME280;46107;53.356;-1.524;2023-02-18T03:55:31;98641.22;;;6.11;100.00
60246;BME280;46107;53.356;-1.524;2023-02-18T03:57:58;98632.89;;;5.57;100.00
60246;BME280;46107;53.356;-1.524;2023-02-18T04:00:26;98633.97;;;5.32;100.00
60246;BME280;46107;53.356;-1.524;2023-02-18T04:02:53;98627.01;;;5.84;100.00
60246;BME280;46107;53.356;-1.524;2023-02-18T04:05:21;98636.17;;;5.58;100.00
60246;BME280;46107;53.356;-1.524;2023-02-18T04:07:49;98632.93;;;6.37;100.00
60246;BME280;46107;53.356;-1.524;2023-02-18T04:10:16;98640.19;;;6.17;100.00
60246;BME280;46107;53.356;-1.524;2023-02-18T04:12:45;98647.03;;;5.55;100.00
60246;BME280;46107;53.356;-1.524;2023-02-18T04:15:13;98644.14;;;5.83;100.00
60246;BME280;46107;53.356;-1.524;2023-02-18T04:17:41;98640.63;;;5.72;100.00
60246;BME280;46107;53.356;-1.524;2023-02-18T04:20:09;98629.53;;;5.86;100.00
60246;BME280;46107;53.356;-1.524;2023-02-18T04:22:38;98640.11;;;6.11;100.00
60246;BME280;46107;53.356;-1.524;2023-02-18T04:25:06;98638.48;;;5.65;100.00
60246;BME280;46107;53.356;-1.524;2023-02-18T04:27:34;98645.64;;;6.27;100.00
60246;BME280;46107;53.356;-1.524;2023-02-18T04:30:01;98643.07;;;6.02;100.00
60246;BME280;46107;53.356;-1.524;2023-02-18T04:32:28;98638.24;;;5.91;100.00
60246;BME280;46107;53.356;-1.524;2023-02-18T04:34:56;98638.65;;;6.08;100.00
60246;BME280;46107;53.356;-1.524;2023-02-18T04:37:23;98631.95;;;6.15;100.00
60246;BME280;46107;53.356;-1.524;2023-02-18T04:39:51;98627.03;;;5.92;100.00
60246;BME280;46107;53.356;-1.524;2023-02-18T04:42:18;98635.21;;;5.81;100.00
60246;BME280;46107;53.356;-1.524;2023-02-18T04:44:51;98637.57;;;6.18;100.00
60246;BME280;46107;53.356;-1.524;2023-02-18T04:47:19;98629.40;;;6.19;100.00
60246;BME280;46107;53.356;-1.524;2023-02-18T04:49:46;98628.72;;;5.60;100.00
60246;BME280;46107;53.356;-1.524;2023-02-18T04:52:14;98640.25;;;6.36;100.00
60246;BME280;46107;53.356;-1.524;2023-02-18T04:54:43;98636.38;;;5.83;100.00
60246;BME280;46107;53.356;-1.524;2023-02-18T04:57:11;98642.03;;;6.35;100.00
60246;BME280;46107;53.356;-1.524;2023-02-18T04:59:39;98635.85;;;5.96;100.00
60246;BME280;46107;53.356;-1.524;2023-02-18T05:02:07;98647.60;;;6.64;100.00
60246;BME280;46107;53.356;-1.524;2023-02-18T05:04:34;98643.33;;;6.48;100.00
60246;BME280;46107;53.356;-1.524;2023-02-18T05:07:02;98640.33;;;5.76;100.00
60246;BME280;46107;53.356;-1.524;2023-02-18T05:09:30;98632.19;;;6.47;100.00
60246;BME280;46107;53.356;-1.524;2023-02-18T05:11:58;98640.83;;;6.33;100.00
60246;BME280;46107;53.356;-1.524;2023-02-18T05:14:25;98644.37;;;6.31;100.00
60246;BME280;46107;53.356;-1.524;2023-02-18T05:16:52;98642.17;;;6.37;100.00
60246;BME280;46107;53.356;-1.524;2023-02-18T05:19:19;98647.97;;;6.11;100.00
60246;BME280;46107;53.356;-1.524;2023-02-18T05:21:47;98661.74;;;6.66;100.00
60246;BME280;46107;53.356;-1.524;2023-02-18T05:24:15;98652.25;;;6.28;100.00
60246;BME280;46107;53.356;-1.524;2023-02-18T05:26:42;98641.90;;;5.96;100.00
60246;BME280;46107;53.356;-1.524;2023-02-18T05:29:10;98649.65;;;5.77;100.00
60246;BME280;46107;53.356;-1.524;2023-02-18T05:31:36;98646.26;;;6.42;100.00
60246;BME280;46107;53.356;-1.524;2023-02-18T05:34:05;98654.12;;;6.83;100.00
60246;BME280;46107;53.356;-1.524;2023-02-18T05:36:33;98627.94;;;6.42;100.00
60246;BME280;46107;53.356;-1.524;2023-02-18T05:39:00;98620.30;;;6.02;100.00
60246;BME280;46107;53.356;-1.524;2023-02-18T05:41:27;98630.49;;;5.96;100.00
60246;BME280;46107;53.356;-1.524;2023-02-18T05:43:55;98637.99;;;6.92;100.00
60246;BME280;46107;53.356;-1.524;2023-02-18T05:46:22;98639.15;;;6.86;100.00
60246;BME280;46107;53.356;-1.524;2023-02-18T05:48:50;98631.26;;;6.64;100.00
60246;BME280;46107;53.356;-1.524;2023-02-18T05:51:17;98633.50;;;6.68;100.00
60246;BME280;46107;53.356;-1.524;2023-02-18T05:53:49;98628.36;;;7.04;100.00
60246;BME280;46107;53.356;-1.524;2023-02-18T05:56:17;98635.27;;;7.04;100.00
60246;BME280;46107;53.356;-1.524;2023-02-18T05:58:49;98627.79;;;6.74;100.00
60246;BME280;46107;53.356;-1.524;2023-02-18T06:01:16;98628.49;;;6.18;100.00
60246;BME280;46107;53.356;-1.524;2023-02-18T06:03:43;98622.01;;;6.78;100.00
60246;BME280;46107;53.356;-1.524;2023-02-18T06:06:11;98620.77;;;6.49;100.00
60246;BME280;46107;53.356;-1.524;2023-02-18T06:08:39;98612.65;;;6.89;100.00
60246;BME280;46107;53.356;-1.524;2023-02-18T06:11:06;98615.02;;;6.78;100.00
60246;BME280;46107;53.356;-1.524;2023-02-18T06:13:34;98627.54;;;6.77;100.00
60246;BME280;46107;53.356;-1.524;2023-02-18T06:16:01;98630.95;;;6.04;100.00
60246;BME280;46107;53.356;-1.524;2023-02-18T06:18:28;98639.44;;;6.38;100.00
60246;BME280;46107;53.356;-1.524;2023-02-18T06:20:56;98634.20;;;6.16;100.00
60246;BME280;46107;53.356;-1.524;2023-02-18T06:23:23;98644.19;;;6.44;100.00
60246;BME280;46107;53.356;-1.524;2023-02-18T06:25:51;98647.98;;;6.52;100.00
60246;BME280;46107;53.356;-1.524;2023-02-18T06:28:18;98644.02;;;6.76;100.00
60246;BME280;46107;53.356;-1.524;2023-02-18T06:30:51;98649.25;;;7.02;100.00
60246;BME280;46107;53.356;-1.524;2023-02-18T06:33:18;98650.61;;;6.72;100.00
60246;BME280;46107;53.356;-1.524;2023-02-18T06:35:58;98660.00;;;6.46;100.00
60246;BME280;46107;53.356;-1.524;2023-02-18T06:38:26;98651.57;;;7.59;100.00
60246;BME280;46107;53.356;-1.524;2023-02-18T06:40:54;98665.06;;;6.59;100.00
60246;BME280;46107;53.356;-1.524;2023-02-18T06:43:22;98664.63;;;6.24;100.00
60246;BME280;46107;53.356;-1.524;2023-02-18T06:45:49;98655.24;;;6.88;100.00
60246;BME280;46107;53.356;-1.524;2023-02-18T06:48:17;98667.11;;;6.36;100.00
60246;BME280;46107;53.356;-1.524;2023-02-18T06:50:45;98666.77;;;6.47;100.00
60246;BME280;46107;53.356;-1.524;2023-02-18T06:53:13;98659.68;;;6.53;100.00
60246;BME280;46107;53.356;-1.524;2023-02-18T06:55:40;98659.81;;;6.24;100.00
60246;BME280;46107;53.356;-1.524;2023-02-18T06:58:09;98661.24;;;6.14;100.00
60246;BME280;46107;53.356;-1.524;2023-02-18T07:00:37;98672.26;;;5.50;100.00
60246;BME280;46107;53.356;-1.524;2023-02-18T07:03:05;98667.71;;;5.83;100.00
60246;BME280;46107;53.356;-1.524;2023-02-18T07:05:33;98662.11;;;6.16;100.00
60246;BME280;46107;53.356;-1.524;2023-02-18T07:08:00;98667.36;;;5.99;100.00
60246;BME280;46107;53.356;-1.524;2023-02-18T07:10:28;98668.24;;;6.09;100.00
60246;BME280;46107;53.356;-1.524;2023-02-18T07:12:56;98666.26;;;5.87;100.00
60246;BME280;46107;53.356;-1.524;2023-02-18T07:15:23;98680.30;;;6.52;100.00
60246;BME280;46107;53.356;-1.524;2023-02-18T07:17:51;98669.29;;;5.68;100.00
60246;BME280;46107;53.356;-1.524;2023-02-18T07:20:20;98664.91;;;6.10;100.00
60246;BME280;46107;53.356;-1.524;2023-02-18T07:22:48;98680.05;;;6.37;100.00
60246;BME280;46107;53.356;-1.524;2023-02-18T07:25:16;98674.72;;;6.54;100.00
60246;BME280;46107;53.356;-1.524;2023-02-18T07:27:44;98646.53;;;5.99;100.00
60246;BME280;46107;53.356;-1.524;2023-02-18T07:30:13;98676.02;;;5.50;100.00
60246;BME280;46107;53.356;-1.524;2023-02-18T07:32:41;98683.46;;;5.66;100.00
60246;BME280;46107;53.356;-1.524;2023-02-18T07:35:11;98683.92;;;5.71;100.00
60246;BME280;46107;53.356;-1.524;2023-02-18T07:37:39;98696.68;;;5.46;100.00
60246;BME280;46107;53.356;-1.524;2023-02-18T07:40:12;98683.24;;;5.73;100.00
60246;BME280;46107;53.356;-1.524;2023-02-18T07:42:40;98687.30;;;5.35;100.00
60246;BME280;46107;53.356;-1.524;2023-02-18T07:45:09;98710.74;;;5.59;100.00
60246;BME280;46107;53.356;-1.524;2023-02-18T07:47:37;98701.79;;;5.97;100.00
60246;BME280;46107;53.356;-1.524;2023-02-18T07:50:05;98697.98;;;5.49;100.00
60246;BME280;46107;53.356;-1.524;2023-02-18T07:52:33;98707.18;;;5.67;100.00
60246;BME280;46107;53.356;-1.524;2023-02-18T07:55:00;98703.03;;;5.50;100.00
60246;BME280;46107;53.356;-1.524;2023-02-18T07:57:28;98706.43;;;6.14;100.00
60246;BME280;46107;53.356;-1.524;2023-02-18T07:59:55;98705.85;;;5.77;100.00
60246;BME280;46107;53.356;-1.524;2023-02-18T08:02:24;98723.08;;;5.86;100.00
60246;BME280;46107;53.356;-1.524;2023-02-18T08:04:52;98713.39;;;6.28;100.00
60246;BME280;46107;53.356;-1.524;2023-02-18T08:07:21;98735.75;;;5.70;100.00
60246;BME280;46107;53.356;-1.524;2023-02-18T08:09:48;98751.19;;;6.51;100.00
60246;BME280;46107;53.356;-1.524;2023-02-18T08:12:16;98737.93;;;5.89;100.00
60246;BME280;46107;53.356;-1.524;2023-02-18T08:14:44;98729.72;;;6.29;100.00
60246;BME280;46107;53.356;-1.524;2023-02-18T08:17:12;98740.54;;;6.29;100.00
60246;BME280;46107;53.356;-1.524;2023-02-18T08:19:39;98755.65;;;6.24;98.97
60246;BME280;46107;53.356;-1.524;2023-02-18T08:22:07;98762.23;;;6.43;95.38
60246;BME280;46107;53.356;-1.524;2023-02-18T08:24:34;98774.52;;;6.62;96.63
60246;BME280;46107;53.356;-1.524;2023-02-18T08:27:02;98771.86;;;6.85;94.42
60246;BME280;46107;53.356;-1.524;2023-02-18T08:29:30;98785.22;;;6.55;95.55
60246;BME280;46107;53.356;-1.524;2023-02-18T08:31:58;98807.65;;;6.43;96.22
60246;BME280;46107;53.356;-1.524;2023-02-18T08:34:25;98807.28;;;6.82;96.42
60246;BME280;46107;53.356;-1.524;2023-02-18T08:36:53;98823.21;;;6.57;96.84
60246;BME280;46107;53.356;-1.524;2023-02-18T08:39:20;98815.79;;;6.26;100.00
60246;BME280;46107;53.356;-1.524;2023-02-18T08:41:47;98837.30;;;6.60;100.00
60246;BME280;46107;53.356;-1.524;2023-02-18T08:44:14;98820.46;;;6.52;96.28
60246;BME280;46107;53.356;-1.524;2023-02-18T08:46:42;98837.54;;;6.90;96.22
60246;BME280;46107;53.356;-1.524;2023-02-18T08:49:09;98841.90;;;6.40;96.89
60246;BME280;46107;53.356;-1.524;2023-02-18T08:51:36;98861.05;;;7.10;91.89
60246;BME280;46107;53.356;-1.524;2023-02-18T08:54:04;98861.73;;;7.26;89.29
60246;BME280;46107;53.356;-1.524;2023-02-18T08:56:31;98874.29;;;7.61;85.11
60246;BME280;46107;53.356;-1.524;2023-02-18T08:58:59;98882.23;;;6.98;88.53
60246;BME280;46107;53.356;-1.524;2023-02-18T09:01:27;98877.15;;;7.25;88.52
60246;BME280;46107;53.356;-1.524;2023-02-18T09:03:54;98894.79;;;7.11;86.68
60246;BME280;46107;53.356;-1.524;2023-02-18T09:06:22;98901.61;;;6.87;86.83
60246;BME280;46107;53.356;-1.524;2023-02-18T09:08:50;98911.13;;;6.52;89.13
60246;BME280;46107;53.356;-1.524;2023-02-18T09:11:18;98920.62;;;7.44;82.34
60246;BME280;46107;53.356;-1.524;2023-02-18T09:13:46;98925.39;;;8.25;81.91
60246;BME280;46107;53.356;-1.524;2023-02-18T09:16:16;98923.59;;;9.04;75.84
60246;BME280;46107;53.356;-1.524;2023-02-18T09:18:44;98934.22;;;8.56;73.78
60246;BME280;46107;53.356;-1.524;2023-02-18T09:21:14;98946.04;;;8.64;73.74
60246;BME280;46107;53.356;-1.524;2023-02-18T09:23:41;98957.06;;;8.85;71.60
60246;BME280;46107;53.356;-1.524;2023-02-18T09:26:12;98966.48;;;8.66;72.29
60246;BME280;46107;53.356;-1.524;2023-02-18T09:28:40;98968.92;;;9.31;71.72
60246;BME280;46107;53.356;-1.524;2023-02-18T09:31:10;98975.62;;;8.49;70.08
60246;BME280;46107;53.356;-1.524;2023-02-18T09:33:40;98988.25;;;8.86;68.67
60246;BME280;46107;53.356;-1.524;2023-02-18T09:36:08;98990.89;;;9.67;68.23
60246;BME280;46107;53.356;-1.524;2023-02-18T09:38:36;98995.56;;;9.55;65.14
60246;BME280;46107;53.356;-1.524;2023-02-18T09:41:09;99002.45;;;9.20;69.79
60246;BME280;46107;53.356;-1.524;2023-02-18T09:43:42;98997.61;;;9.68;70.29
60246;BME280;46107;53.356;-1.524;2023-02-18T09:46:18;99004.48;;;9.00;70.71
60246;BME280;46107;53.356;-1.524;2023-02-18T09:48:48;98992.32;;;9.40;70.28
60246;BME280;46107;53.356;-1.524;2023-02-18T09:51:16;98990.49;;;9.20;69.43
60246;BME280;46107;53.356;-1.524;2023-02-18T09:53:44;98993.00;;;8.58;72.65
60246;BME280;46107;53.356;-1.524;2023-02-18T09:56:14;98984.54;;;9.45;70.63
60246;BME280;46107;53.356;-1.524;2023-02-18T09:58:46;98988.35;;;9.74;69.11
60246;BME280;46107;53.356;-1.524;2023-02-18T10:01:20;98994.41;;;8.51;73.31
60246;BME280;46107;53.356;-1.524;2023-02-18T10:03:51;98986.35;;;8.97;71.53
60246;BME280;46107;53.356;-1.524;2023-02-18T10:06:22;98979.59;;;9.30;72.94
60246;BME280;46107;53.356;-1.524;2023-02-18T10:08:52;98985.69;;;8.61;70.09
60246;BME280;46107;53.356;-1.524;2023-02-18T10:11:28;98984.30;;;8.33;75.79
60246;BME280;46107;53.356;-1.524;2023-02-18T10:13:56;98983.42;;;8.18;76.96
60246;BME280;46107;53.356;-1.524;2023-02-18T10:16:24;98966.84;;;8.70;71.87
60246;BME280;46107;53.356;-1.524;2023-02-18T10:18:55;98967.96;;;8.58;76.78
60246;BME280;46107;53.356;-1.524;2023-02-18T10:21:25;98976.03;;;8.23;79.16
60246;BME280;46107;53.356;-1.524;2023-02-18T10:23:59;98975.89;;;8.41;77.54
60246;BME280;46107;53.356;-1.524;2023-02-18T10:26:29;98968.74;;;8.48;75.65
60246;BME280;46107;53.356;-1.524;2023-02-18T10:28:58;98970.29;;;9.00;75.75
60246;BME280;46107;53.356;-1.524;2023-02-18T10:31:30;98970.90;;;8.52;76.93
60246;BME280;46107;53.356;-1.524;2023-02-18T10:34:06;98972.68;;;9.14;76.82
60246;BME280;46107;53.356;-1.524;2023-02-18T10:36:44;98971.57;;;9.39;78.94
60246;BME280;46107;53.356;-1.524;2023-02-18T10:39:27;98961.95;;;8.64;81.39
60246;BME280;46107;53.356;-1.524;2023-02-18T10:42:09;98968.84;;;8.08;80.53
60246;BME280;46107;53.356;-1.524;2023-02-18T10:44:53;98975.38;;;8.13;80.91
60246;BME280;46107;53.356;-1.524;2023-02-18T10:47:35;98981.85;;;8.05;81.88
60246;BME280;46107;53.356;-1.524;2023-02-18T10:50:09;98976.22;;;8.30;81.57
60246;BME280;46107;53.356;-1.524;2023-02-18T10:52:42;98981.62;;;7.68;84.96
60246;BME280;46107;53.356;-1.524;2023-02-18T10:55:12;98984.47;;;7.86;87.40
60246;BME280;46107;53.356;-1.524;2023-02-18T10:57:49;98991.61;;;8.35;82.60
60246;BME280;46107;53.356;-1.524;2023-02-18T11:00:20;98982.38;;;8.65;81.26
60246;BME280;46107;53.356;-1.524;2023-02-18T11:03:01;98993.21;;;9.22;79.10
60246;BME280;46107;53.356;-1.524;2023-02-18T11:05:30;98997.94;;;8.60;81.01
60246;BME280;46107;53.356;-1.524;2023-02-18T11:08:07;99000.64;;;8.45;81.30
60246;BME280;46107;53.356;-1.524;2023-02-18T11:10:39;98996.82;;;8.71;80.85
60246;BME280;46107;53.356;-1.524;2023-02-18T11:13:09;98993.06;;;7.74;82.60
60246;BME280;46107;53.356;-1.524;2023-02-18T11:15:53;98986.23;;;7.80;84.17
60246;BME280;46107;53.356;-1.524;2023-02-18T11:18:29;98990.60;;;8.15;82.74
60246;BME280;46107;53.356;-1.524;2023-02-18T11:21:01;98979.89;;;8.28;82.77
60246;BME280;46107;53.356;-1.524;2023-02-18T11:23:29;98989.72;;;7.58;84.18
60246;BME280;46107;53.356;-1.524;2023-02-18T11:26:00;98990.78;;;7.41;85.15
60246;BME280;46107;53.356;-1.524;2023-02-18T11:28:36;98991.46;;;7.80;83.51
60246;BME280;46107;53.356;-1.524;2023-02-18T11:31:08;98975.10;;;8.58;80.70
60246;BME280;46107;53.356;-1.524;2023-02-18T11:33:39;98980.19;;;8.41;80.63
60246;BME280;46107;53.356;-1.524;2023-02-18T11:36:16;98975.61;;;8.40;80.54
60246;BME280;46107;53.356;-1.524;2023-02-18T11:38:48;98973.97;;;8.71;80.96
60246;BME280;46107;53.356;-1.524;2023-02-18T11:41:19;98986.46;;;8.93;82.24
60246;BME280;46107;53.356;-1.524;2023-02-18T11:43:50;98974.65;;;8.04;85.07
60246;BME280;46107;53.356;-1.524;2023-02-18T11:46:22;98979.55;;;8.68;81.53
60246;BME280;46107;53.356;-1.524;2023-02-18T11:48:51;98977.14;;;8.07;86.28
60246;BME280;46107;53.356;-1.524;2023-02-18T11:51:23;98977.88;;;8.89;83.62
60246;BME280;46107;53.356;-1.524;2023-02-18T11:53:59;98975.36;;;7.67;85.54
60246;BME280;46107;53.356;-1.524;2023-02-18T11:56:30;98980.81;;;8.37;85.94
60246;BME280;46107;53.356;-1.524;2023-02-18T11:58:59;98986.35;;;7.49;88.71
60246;BME280;46107;53.356;-1.524;2023-02-18T12:01:34;98980.11;;;8.19;87.57
60246;BME280;46107;53.356;-1.524;2023-02-18T12:04:10;98979.65;;;8.30;84.40
60246;BME280;46107;53.356;-1.524;2023-02-18T12:06:45;98971.94;;;8.28;82.64
60246;BME280;46107;53.356;-1.524;2023-02-18T12:09:22;98979.10;;;7.90;84.29
60246;BME280;46107;53.356;-1.524;2023-02-18T12:11:55;98972.49;;;7.74;84.83
60246;BME280;46107;53.356;-1.524;2023-02-18T12:14:24;98978.65;;;8.50;82.84
60246;BME280;46107;53.356;-1.524;2023-02-18T12:17:09;98980.18;;;8.51;80.35
60246;BME280;46107;53.356;-1.524;2023-02-18T12:19:54;98986.51;;;8.39;82.51
60246;BME280;46107;53.356;-1.524;2023-02-18T12:22:35;98993.38;;;8.85;77.84
60246;BME280;46107;53.356;-1.524;2023-02-18T12:25:21;98995.57;;;7.65;81.68
60246;BME280;46107;53.356;-1.524;2023-02-18T12:28:01;98994.30;;;8.29;81.61
60246;BME280;46107;53.356;-1.524;2023-02-18T12:30:40;99000.68;;;8.93;78.38
60246;BME280;46107;53.356;-1.524;2023-02-18T12:33:18;99001.26;;;9.85;74.84
60246;BME280;46107;53.356;-1.524;2023-02-18T12:36:01;99019.93;;;9.00;76.71
60246;BME280;46107;53.356;-1.524;2023-02-18T12:38:49;99017.98;;;9.20;75.61
60246;BME280;46107;53.356;-1.524;2023-02-18T12:41:30;99023.57;;;9.06;73.70
60246;BME280;46107;53.356;-1.524;2023-02-18T12:44:15;99034.41;;;9.79;71.05
60246;BME280;46107;53.356;-1.524;2023-02-18T12:46:58;99022.57;;;9.73;72.87
60246;BME280;46107;53.356;-1.524;2023-02-18T12:49:41;99043.56;;;9.34;72.04
60246;BME280;46107;53.356;-1.524;2023-02-18T12:52:20;99044.03;;;9.56;71.24
60246;BME280;46107;53.356;-1.524;2023-02-18T12:55:20;99040.64;;;10.13;72.68
60246;BME280;46107;53.356;-1.524;2023-02-18T12:57:57;99040.63;;;10.09;69.91
60246;BME280;46107;53.356;-1.524;2023-02-18T13:00:42;99026.77;;;9.69;71.76
60246;BME280;46107;53.356;-1.524;2023-02-18T13:03:32;99040.67;;;9.13;71.63
60246;BME280;46107;53.356;-1.524;2023-02-18T13:06:12;99033.49;;;9.51;69.61
60246;BME280;46107;53.356;-1.524;2023-02-18T13:08:55;99042.57;;;9.14;71.10
60246;BME280;46107;53.356;-1.524;2023-02-18T13:11:35;99041.87;;;8.86;70.80
60246;BME280;46107;53.356;-1.524;2023-02-18T13:14:09;99047.26;;;9.06;72.54
60246;BME280;46107;53.356;-1.524;2023-02-18T13:16:39;99041.90;;;10.00;68.78